Time;durP1;ratioP1;P1;durP2;ratioP2;P2;SDS_P1;SDS_P2;PMS_P1;PMS_P2;Temp;Humidity;BMP_temperature;BMP_pressure;BME280_temperature;BME280_humidity;BME280_pressure;Samples;Min_cycle;Max_cycle;Signal;HPM_P1;HPM_P2
2021/05/26 00:02:06;;;;;;;1.50;1.38;;;;;;;11.15;85.45;100235.28;5058964;28;20032;-72
2021/05/26 00:04:31;;;;;;;2.28;1.73;;;;;;;11.18;85.90;100231.97;5070733;28;20017;-72
2021/05/26 00:06:57;;;;;;;1.75;1.52;;;;;;;11.18;85.60;100237.44;5060354;28;20021;-72
2021/05/26 00:09:22;;;;;;;1.80;1.35;;;;;;;11.17;85.85;100238.53;5068371;28;20060;-72
2021/05/26 00:11:47;;;;;;;2.97;1.30;;;;;;;11.18;85.92;100223.78;5059519;28;20407;-72
2021/05/26 00:14:13;;;;;;;1.58;1.20;;;;;;;11.18;85.87;100218.34;5062981;28;20032;-72
2021/05/26 00:16:38;;;;;;;1.50;1.30;;;;;;;11.19;85.87;100214.53;5060450;28;20140;-71
2021/05/26 00:19:06;;;;;;;2.45;1.48;;;;;;;11.21;86.09;100223.19;5069216;28;20471;-71
2021/05/26 00:21:32;;;;;;;1.67;1.35;;;;;;;11.21;86.04;100217.75;5070587;28;20021;-71
2021/05/26 00:23:57;;;;;;;2.08;1.25;;;;;;;11.22;86.01;100214.75;5058243;28;20032;-71
2021/05/26 00:26:23;;;;;;;2.75;1.15;;;;;;;11.19;85.94;100217.25;5062320;28;20070;-72
2021/05/26 00:28:48;;;;;;;1.45;1.10;;;;;;;11.16;85.83;100215.06;5048746;28;20047;-72
2021/05/26 00:31:14;;;;;;;3.08;1.20;;;;;;;11.16;86.13;100215.06;5060007;28;20021;-72
2021/05/26 00:33:39;;;;;;;3.22;1.50;;;;;;;11.16;86.07;100210.47;5054493;28;20412;-72
2021/05/26 00:36:05;;;;;;;1.40;1.30;;;;;;;11.17;86.11;100216.72;5065406;28;20032;-72
2021/05/26 00:38:30;;;;;;;1.25;1.10;;;;;;;11.17;86.20;100206.63;5059081;28;20048;-71
2021/05/26 00:40:55;;;;;;;2.03;1.60;;;;;;;11.17;86.01;100211.25;5065891;28;20029;-72
2021/05/26 00:43:21;;;;;;;3.28;1.85;;;;;;;11.13;85.94;100199.28;5059175;28;20032;-72
2021/05/26 00:45:46;;;;;;;3.60;1.70;;;;;;;11.04;85.55;100191.75;5061499;28;20020;-72
2021/05/26 00:48:12;;;;;;;3.55;1.75;;;;;;;10.97;86.08;100194.03;5052252;28;20063;-71
2021/05/26 00:50:38;;;;;;;6.88;1.85;;;;;;;10.91;85.98;100186.19;5071662;28;20402;-72
2021/05/26 00:53:08;;;;;;;3.80;1.88;;;;;;;10.80;86.04;100199.97;5064532;28;20078;-72
2021/05/26 00:55:33;;;;;;;3.33;1.80;;;;;;;10.71;86.52;100198.16;5059748;28;20115;-72
2021/05/26 00:57:59;;;;;;;3.47;1.63;;;;;;;10.64;86.50;100199.31;5070449;28;20028;-72
2021/05/26 01:00:25;;;;;;;4.40;1.30;;;;;;;10.57;86.42;100204.28;5073556;28;20024;-72
2021/05/26 01:02:51;;;;;;;4.60;1.85;;;;;;;10.52;86.68;100206.25;5068396;28;20091;-72
2021/05/26 01:05:17;;;;;;;1.98;1.40;;;;;;;10.45;86.54;100206.59;5055345;28;20034;-72
2021/05/26 01:07:42;;;;;;;3.90;1.50;;;;;;;10.37;86.59;100205.31;5040319;28;20468;-72
2021/05/26 01:10:09;;;;;;;1.98;1.10;;;;;;;10.28;86.70;100209.72;5073783;28;20048;-73
2021/05/26 01:12:34;;;;;;;2.40;0.95;;;;;;;10.24;86.90;100211.38;5068472;28;20028;-72
2021/05/26 01:15:00;;;;;;;2.22;1.15;;;;;;;10.20;86.97;100211.13;5066781;28;20028;-72
2021/05/26 01:17:26;;;;;;;0.98;0.88;;;;;;;10.16;86.85;100212.78;5066001;28;20493;-72
2021/05/26 01:19:51;;;;;;;1.50;1.10;;;;;;;10.15;87.00;100213.09;5069986;28;20024;-72
2021/05/26 01:22:16;;;;;;;2.72;1.15;;;;;;;10.14;86.66;100206.81;5059785;28;20025;-72
2021/05/26 01:24:42;;;;;;;3.35;2.03;;;;;;;10.15;87.09;100208.47;5055705;28;20501;-72
2021/05/26 01:27:07;;;;;;;1.90;1.40;;;;;;;10.16;87.25;100209.25;5051433;28;20016;-72
2021/05/26 01:29:34;;;;;;;4.22;1.52;;;;;;;10.15;86.97;100207.66;5051973;28;20025;-72
2021/05/26 01:32:01;;;;;;;3.10;1.58;;;;;;;10.13;87.42;100209.84;5064716;28;20028;-72
2021/05/26 01:34:26;;;;;;;6.20;1.80;;;;;;;10.14;87.60;100217.72;5052598;28;20130;-72
2021/05/26 01:36:51;;;;;;;4.82;1.73;;;;;;;10.18;87.38;100212.53;5068350;28;20048;-72
2021/05/26 01:39:18;;;;;;;3.47;1.80;;;;;;;10.20;87.61;100215.75;5064432;28;20036;-72
2021/05/26 01:41:44;;;;;;;4.30;2.00;;;;;;;10.21;87.53;100210.03;5067376;28;20028;-72
2021/05/26 01:44:09;;;;;;;3.75;1.85;;;;;;;10.23;87.63;100212.47;5024787;28;20371;-73
2021/05/26 01:46:39;;;;;;;3.42;2.30;;;;;;;10.23;87.58;100210.56;5063552;28;20028;-72
2021/05/26 01:49:05;;;;;;;5.53;2.10;;;;;;;10.23;87.39;100221.47;5055471;28;20044;-73
2021/05/26 01:51:31;;;;;;;3.30;1.42;;;;;;;10.25;87.50;100214.91;5047251;28;20100;-73
2021/05/26 01:53:56;;;;;;;2.38;1.70;;;;;;;10.25;87.56;100214.91;5047072;28;20576;-72
2021/05/26 01:56:23;;;;;;;4.30;1.70;;;;;;;10.23;87.64;100209.75;5044813;28;20029;-72
2021/05/26 01:58:52;;;;;;;6.20;2.40;;;;;;;10.20;87.50;100211.13;5036015;28;20037;-72
2021/05/26 02:01:18;;;;;;;4.95;2.17;;;;;;;10.21;87.46;100212.75;5046157;28;20411;-73
2021/05/26 02:03:44;;;;;;;2.53;1.70;;;;;;;10.21;87.44;100218.19;5048475;28;20055;-72
2021/05/26 02:06:13;;;;;;;2.75;1.52;;;;;;;10.16;87.55;100220.97;5067470;28;20099;-72
2021/05/26 02:08:42;;;;;;;1.90;1.30;;;;;;;10.15;87.39;100219.34;5050927;28;20063;-72
2021/05/26 02:13:51;;;;;;;1.92;1.50;;;;;;;10.14;87.58;100217.72;5063112;28;20066;-72
2021/05/26 02:16:17;;;;;;;2.20;1.23;;;;;;;10.13;87.48;100237.06;5058964;28;20036;-73
2021/05/26 02:18:42;;;;;;;1.30;1.00;;;;;;;10.08;87.30;100234.38;5068763;28;20074;-72
2021/05/26 02:21:07;;;;;;;3.08;1.15;;;;;;;10.02;87.34;100222.72;5061779;28;20118;-72
2021/05/26 02:23:33;;;;;;;3.90;1.15;;;;;;;9.96;87.32;100242.91;5052879;28;20025;-72
2021/05/26 02:25:58;;;;;;;4.72;1.27;;;;;;;9.94;87.31;100236.94;5063931;28;20029;-72
2021/05/26 02:28:24;;;;;;;3.58;1.05;;;;;;;9.92;87.40;100236.41;5054082;28;20016;-72
2021/05/26 02:30:49;;;;;;;3.35;1.20;;;;;;;9.89;87.49;100240.50;5072582;28;20024;-73
2021/05/26 02:33:15;;;;;;;2.60;1.02;;;;;;;9.90;87.34;100238.59;5055738;28;20029;-72
2021/05/26 02:35:40;;;;;;;2.65;1.25;;;;;;;9.89;87.34;100236.97;5060425;28;20032;-72
2021/05/26 02:38:06;;;;;;;2.38;1.13;;;;;;;9.87;87.14;100229.06;5063698;28;20060;-72
2021/05/26 02:40:34;;;;;;;1.92;1.10;;;;;;;9.88;87.26;100235.34;5074839;28;20406;-72
2021/05/26 02:43:02;;;;;;;4.22;1.20;;;;;;;9.88;87.06;100241.59;5054664;28;20032;-72
2021/05/26 02:45:28;;;;;;;2.65;1.10;;;;;;;9.89;87.33;100236.97;5073402;28;20024;-72
2021/05/26 02:47:53;;;;;;;2.80;1.23;;;;;;;9.90;87.35;100236.69;5056743;28;20498;-73
2021/05/26 02:50:19;;;;;;;3.50;1.25;;;;;;;9.92;87.22;100241.84;5054869;28;20013;-72
2021/05/26 02:52:47;;;;;;;3.50;1.77;;;;;;;9.91;87.17;100243.75;5054394;28;20029;-72
2021/05/26 02:55:14;;;;;;;5.60;1.75;;;;;;;9.91;87.33;100240.22;5058297;28;20071;-73
2021/05/26 02:57:39;;;;;;;3.40;1.83;;;;;;;9.93;87.30;100248.91;5068207;28;20031;-72
2021/05/26 03:00:06;;;;;;;3.92;1.58;;;;;;;9.93;87.25;100247.03;5067747;28;20024;-73
2021/05/26 03:02:31;;;;;;;2.97;1.73;;;;;;;9.94;87.09;100250.56;5061874;28;20047;-72
2021/05/26 03:04:56;;;;;;;1.73;1.40;;;;;;;9.94;86.96;100256.81;5057897;28;20468;-73
2021/05/26 03:07:22;;;;;;;5.25;1.75;;;;;;;9.92;87.27;100252.75;5071104;28;20029;-73
2021/05/26 03:09:47;;;;;;;2.47;1.88;;;;;;;9.93;87.02;100246.19;5056657;28;20487;-72
2021/05/26 03:12:13;;;;;;;2.60;2.05;;;;;;;9.92;87.15;100247.28;5062283;28;20029;-72
2021/05/26 03:14:38;;;;;;;3.78;2.20;;;;;;;9.92;87.11;100258.19;5041162;28;20024;-72
2021/05/26 03:17:03;;;;;;;4.78;2.35;;;;;;;9.90;87.08;100250.31;5059927;28;20045;-72
2021/05/26 03:19:29;;;;;;;3.80;1.85;;;;;;;9.90;87.18;100254.91;5068055;28;20359;-72
2021/05/26 03:21:54;;;;;;;2.58;2.10;;;;;;;9.90;87.36;100255.75;5055705;28;20785;-72
2021/05/26 03:24:20;;;;;;;2.80;1.70;;;;;;;9.90;87.22;100254.91;5058971;28;20036;-72
2021/05/26 03:26:45;;;;;;;2.47;2.05;;;;;;;9.89;87.04;100265.00;5073966;28;20020;-72
2021/05/26 03:29:11;;;;;;;2.17;1.90;;;;;;;9.87;86.93;100260.94;5066694;28;20617;-72
2021/05/26 03:31:36;;;;;;;2.97;2.03;;;;;;;9.86;86.96;100248.44;5059677;28;20083;-72
2021/05/26 03:34:02;;;;;;;1.88;1.63;;;;;;;9.86;86.87;100256.59;5060486;28;20086;-72
2021/05/26 03:36:27;;;;;;;3.60;1.60;;;;;;;9.84;86.97;100256.88;5069208;28;20052;-72
2021/05/26 03:38:53;;;;;;;3.15;1.50;;;;;;;9.87;87.20;100260.94;5060057;28;20486;-73
2021/05/26 03:41:18;;;;;;;1.60;1.48;;;;;;;9.90;86.96;100257.66;5063220;28;20079;-72
2021/05/26 03:43:44;;;;;;;1.50;1.40;;;;;;;9.90;87.04;100261.19;5058044;28;20027;-72
2021/05/26 03:46:09;;;;;;;2.33;1.63;;;;;;;9.89;86.86;100266.91;5073368;28;20032;-72
2021/05/26 03:48:35;;;;;;;1.85;1.58;;;;;;;9.91;87.08;100270.19;5049333;28;20056;-72
2021/05/26 03:51:00;;;;;;;3.97;1.55;;;;;;;9.91;86.51;100265.53;5063078;28;20024;-73
2021/05/26 03:53:26;;;;;;;2.13;1.50;;;;;;;9.92;86.82;100271.78;5059331;28;20507;-73
2021/05/26 03:55:51;;;;;;;2.63;1.50;;;;;;;9.93;86.78;100270.69;5046092;28;20487;-74
2021/05/26 03:58:16;;;;;;;3.00;1.50;;;;;;;9.93;86.80;100270.69;5057091;28;20036;-72
2021/05/26 04:00:42;;;;;;;3.15;1.63;;;;;;;9.93;86.92;100262.53;5072774;28;20414;-72
2021/05/26 04:03:07;;;;;;;2.38;1.63;;;;;;;9.94;86.95;100261.44;5064282;28;20387;-72
2021/05/26 04:05:33;;;;;;;3.35;1.80;;;;;;;9.95;86.80;100260.34;5058658;28;20041;-72
2021/05/26 04:07:58;;;;;;;2.35;1.48;;;;;;;9.97;86.89;100260.88;5061584;28;20028;-72
2021/05/26 04:10:23;;;;;;;2.75;1.80;;;;;;;9.98;86.74;100262.50;5047214;28;20128;-72
2021/05/26 04:12:49;;;;;;;9.57;1.77;;;;;;;10.00;86.79;100263.03;5056252;28;20020;-72
2021/05/26 04:15:14;;;;;;;3.22;1.60;;;;;;;10.01;86.85;100267.38;5066417;28;20021;-72
2021/05/26 04:17:40;;;;;;;2.25;1.67;;;;;;;10.07;86.71;100268.19;5052006;28;20024;-72
2021/05/26 04:20:06;;;;;;;2.15;1.88;;;;;;;10.10;86.63;100265.69;5053757;28;20028;-72
2021/05/26 04:22:32;;;;;;;2.25;1.55;;;;;;;10.13;86.67;100264.31;5039590;28;20361;-72
2021/05/26 04:24:57;;;;;;;5.30;1.70;;;;;;;10.17;86.56;100265.34;5057071;28;20020;-73
2021/05/26 04:27:23;;;;;;;2.03;1.60;;;;;;;10.21;86.68;100269.97;5074701;28;20493;-72
2021/05/26 04:29:48;;;;;;;2.33;1.58;;;;;;;10.28;86.59;100260.69;5063585;28;20029;-72
2021/05/26 04:32:13;;;;;;;2.38;1.67;;;;;;;10.32;86.42;100269.91;5056058;28;20028;-72
2021/05/26 04:34:39;;;;;;;1.58;1.48;;;;;;;10.32;86.32;100267.19;5067287;28;20494;-72
2021/05/26 04:37:04;;;;;;;2.63;1.52;;;;;;;10.34;86.42;100265.81;5063034;28;20491;-72
2021/05/26 04:39:30;;;;;;;3.15;1.55;;;;;;;10.36;86.22;100268.25;5067272;28;20035;-72
2021/05/26 04:41:55;;;;;;;2.25;1.25;;;;;;;10.40;86.18;100275.56;5064313;28;20052;-72
2021/05/26 04:44:20;;;;;;;1.75;1.42;;;;;;;10.39;86.13;100267.66;5062996;28;20036;-72
2021/05/26 04:46:46;;;;;;;3.22;1.33;;;;;;;10.37;85.99;100269.88;5070185;28;20031;-72
2021/05/26 04:49:13;;;;;;;2.42;1.67;;;;;;;10.36;85.83;100268.25;5065732;28;20035;-72
2021/05/26 04:51:38;;;;;;;2.72;1.38;;;;;;;10.38;85.97;100261.41;5054830;28;20179;-72
2021/05/26 04:54:04;;;;;;;1.83;1.30;;;;;;;10.42;85.84;100261.66;5056818;28;20118;-72
2021/05/26 04:56:29;;;;;;;2.45;1.30;;;;;;;10.44;85.84;100257.53;5072628;28;20159;-72
2021/05/26 04:58:55;;;;;;;4.00;1.92;;;;;;;10.46;85.59;100259.97;5054119;28;20028;-72
2021/05/26 05:01:21;;;;;;;2.88;1.23;;;;;;;10.50;85.81;100258.31;5053054;28;20044;-72
2021/05/26 05:03:47;;;;;;;2.65;1.40;;;;;;;10.55;85.58;100255.53;5052181;28;20040;-73
2021/05/26 05:06:13;;;;;;;1.80;1.48;;;;;;;10.61;85.58;100264.47;5056381;28;20024;-73
2021/05/26 05:08:38;;;;;;;1.17;1.00;;;;;;;10.64;85.29;100262.00;5052299;28;20021;-73
2021/05/26 05:11:04;;;;;;;1.95;0.90;;;;;;;10.70;85.29;100256.50;5072807;28;20029;-72
2021/05/26 05:13:30;;;;;;;1.65;1.10;;;;;;;10.73;85.30;100261.38;5065842;28;20049;-72
2021/05/26 05:15:55;;;;;;;1.58;1.20;;;;;;;10.74;85.08;100268.44;5057391;28;20035;-72
2021/05/26 05:18:20;;;;;;;2.50;1.25;;;;;;;10.71;84.84;100271.75;5063853;28;20021;-72
2021/05/26 05:20:46;;;;;;;1.45;1.20;;;;;;;10.70;84.89;100278.31;5067504;28;20351;-72
2021/05/26 05:23:11;;;;;;;4.00;1.25;;;;;;;10.72;84.79;100281.56;5052245;28;20028;-72
2021/05/26 05:25:37;;;;;;;2.63;1.17;;;;;;;10.74;84.81;100279.34;5044660;28;20494;-72
2021/05/26 05:28:05;;;;;;;3.53;1.48;;;;;;;10.77;84.77;100279.59;5056908;28;20021;-73
2021/05/26 05:30:30;;;;;;;3.90;1.30;;;;;;;10.82;84.70;100284.19;5059055;28;20029;-72
2021/05/26 05:32:56;;;;;;;2.25;1.15;;;;;;;10.90;84.63;100280.84;5049852;28;20040;-72
2021/05/26 05:35:22;;;;;;;3.63;1.25;;;;;;;10.99;84.52;100276.38;5058742;28;20074;-73
2021/05/26 05:37:47;;;;;;;1.38;1.10;;;;;;;11.03;84.21;100282.88;5032396;28;20041;-73
2021/05/26 05:40:13;;;;;;;3.58;1.23;;;;;;;11.05;84.00;100274.44;5054739;28;20330;-72
2021/05/26 05:42:39;;;;;;;1.80;1.05;;;;;;;11.04;84.17;100268.13;5052119;28;20032;-73
2021/05/26 05:45:05;;;;;;;1.17;0.90;;;;;;;11.02;83.89;100267.63;5050847;28;20083;-72
2021/05/26 05:47:30;;;;;;;2.88;1.30;;;;;;;11.02;83.85;100273.09;5053522;28;20172;-72
2021/05/26 05:49:56;;;;;;;3.17;1.10;;;;;;;11.05;83.67;100279.88;5053017;28;20104;-72
2021/05/26 05:52:21;;;;;;;1.40;1.05;;;;;;;11.08;83.64;100274.66;5055154;28;20459;-72
2021/05/26 05:54:49;;;;;;;9.50;1.67;;;;;;;11.10;83.56;100272.44;5046045;28;20495;-72
2021/05/26 05:57:14;;;;;;;2.55;1.02;;;;;;;11.18;83.49;100279.16;5071779;28;20498;-73
2021/05/26 05:59:40;;;;;;;2.67;1.65;;;;;;;11.23;83.21;100275.56;5054076;28;20032;-73
2021/05/26 06:02:05;;;;;;;5.25;1.38;;;;;;;11.32;83.26;100279.28;5045299;28;20040;-73
2021/05/26 06:04:31;;;;;;;4.32;1.92;;;;;;;11.38;83.09;100278.13;5049740;28;20025;-73
2021/05/26 06:06:57;;;;;;;1.23;0.73;;;;;;;11.46;83.12;100280.22;5049031;28;20025;-74
2021/05/26 06:09:22;;;;;;;2.22;1.17;;;;;;;11.50;82.93;100285.88;5052716;28;20165;-74
2021/05/26 06:11:48;;;;;;;6.55;1.73;;;;;;;11.54;82.75;100276.03;5053888;28;20195;-74
2021/05/26 06:14:14;;;;;;;1.30;0.82;;;;;;;11.59;82.66;100288.78;5066710;28;20391;-74
2021/05/26 06:16:39;;;;;;;1.45;1.15;;;;;;;11.67;82.80;100285.41;5048547;28;20028;-74
2021/05/26 06:19:05;;;;;;;1.25;1.15;;;;;;;11.74;82.39;100291.31;5052933;28;20036;-73
2021/05/26 06:21:31;;;;;;;1.70;1.10;;;;;;;11.82;82.49;100293.41;5022790;28;20041;-74
2021/05/26 06:23:56;;;;;;;1.33;1.20;;;;;;;11.91;82.38;100296.31;5051051;28;20029;-74
2021/05/26 06:26:22;;;;;;;1.30;1.20;;;;;;;11.95;82.12;100289.16;5054954;28;20027;-74
2021/05/26 06:28:47;;;;;;;1.63;1.10;;;;;;;11.96;81.96;100294.31;5057574;28;20086;-74
2021/05/26 06:31:13;;;;;;;1.40;1.10;;;;;;;11.94;81.81;100296.53;5048010;28;20021;-73
2021/05/26 06:33:42;;;;;;;1.40;0.90;;;;;;;11.93;81.56;100300.38;5059455;28;20047;-74
2021/05/26 06:36:07;;;;;;;1.05;0.90;;;;;;;11.92;81.46;100304.22;5046039;28;20552;-74
2021/05/26 06:38:33;;;;;;;0.90;0.90;;;;;;;11.99;81.62;100295.66;5017317;28;1139484;-74
2021/05/26 06:40:58;;;;;;;1.33;0.85;;;;;;;12.08;81.22;100293.06;5050956;28;20040;-73
2021/05/26 06:43:24;;;;;;;0.85;0.80;;;;;;;12.14;81.22;100305.53;5055204;28;20025;-75
2021/05/26 06:45:49;;;;;;;0.80;0.70;;;;;;;12.18;80.86;100312.84;5050571;28;20029;-73
2021/05/26 06:48:14;;;;;;;1.02;0.90;;;;;;;12.25;80.70;100296.09;5050331;28;20593;-73
2021/05/26 06:50:40;;;;;;;1.10;0.90;;;;;;;12.30;80.63;100301.44;5044535;28;20025;-73
2021/05/26 06:53:05;;;;;;;1.00;0.90;;;;;;;12.34;80.43;100304.44;5049846;28;20036;-73
2021/05/26 06:55:31;;;;;;;1.00;0.90;;;;;;;12.38;80.12;100306.25;5053335;28;20024;-72
2021/05/26 06:57:56;;;;;;;3.22;1.08;;;;;;;12.47;80.34;100302.84;5050993;28;20035;-73
2021/05/26 07:00:22;;;;;;;1.67;1.00;;;;;;;12.57;80.11;100302.69;5054111;28;20029;-73
2021/05/26 07:02:47;;;;;;;1.60;1.20;;;;;;;12.62;79.83;100300.66;5061289;28;20537;-73
2021/05/26 07:05:12;;;;;;;1.38;1.13;;;;;;;12.65;79.79;100299.25;5048335;28;20475;-72
2021/05/26 07:07:38;;;;;;;1.45;0.98;;;;;;;12.69;79.35;100303.03;5057701;28;20074;-73
2021/05/26 07:10:06;;;;;;;1.60;1.00;;;;;;;12.68;79.15;100297.84;5050377;28;20047;-72
2021/05/26 07:12:31;;;;;;;1.10;0.93;;;;;;;12.70;78.90;100306.56;5051484;28;20111;-72
2021/05/26 07:14:57;;;;;;;2.00;0.90;;;;;;;12.72;78.67;100298.88;5053451;28;20162;-72
2021/05/26 07:17:22;;;;;;;1.65;1.10;;;;;;;12.75;78.70;100311.97;5050196;28;20025;-73
2021/05/26 07:19:48;;;;;;;1.45;0.90;;;;;;;12.76;78.35;100313.56;5048171;28;20075;-73
2021/05/26 07:22:13;;;;;;;1.48;1.20;;;;;;;12.78;78.25;100314.09;5050113;28;20391;-73
2021/05/26 07:24:39;;;;;;;3.10;1.20;;;;;;;12.81;78.25;100314.28;5051095;28;20143;-73
2021/05/26 07:27:04;;;;;;;1.02;0.93;;;;;;;12.86;77.95;100322.41;5057908;28;20526;-73
2021/05/26 07:29:30;;;;;;;1.33;1.00;;;;;;;12.89;77.68;100315.53;5056141;28;20033;-73
2021/05/26 07:31:55;;;;;;;3.08;1.10;;;;;;;12.95;77.67;100318.97;5053353;28;20032;-72
2021/05/26 07:34:21;;;;;;;1.60;0.93;;;;;;;13.09;77.51;100312.44;5055665;28;20040;-73
2021/05/26 07:36:46;;;;;;;2.70;1.20;;;;;;;13.24;77.13;100316.00;5056655;28;20021;-73
2021/05/26 07:39:11;;;;;;;2.13;1.00;;;;;;;13.39;76.89;100314.91;5039833;28;20045;-73
2021/05/26 07:41:37;;;;;;;1.60;1.25;;;;;;;13.48;76.34;100315.84;5052367;28;20391;-73
2021/05/26 07:44:04;;;;;;;1.38;1.10;;;;;;;13.62;76.04;100313.88;5052010;28;20025;-73
2021/05/26 07:46:29;;;;;;;1.13;1.02;;;;;;;13.83;76.02;100324.41;5054649;28;20104;-73
2021/05/26 07:48:55;;;;;;;1.40;1.23;;;;;;;14.03;75.51;100315.75;5054228;28;20094;-73
2021/05/26 07:51:27;;;;;;;2.97;1.20;;;;;;;14.23;75.25;100325.44;5052181;28;20024;-73
2021/05/26 07:53:53;;;;;;;1.08;0.98;;;;;;;14.46;74.31;100329.03;5052361;28;20021;-74
2021/05/26 07:56:20;;;;;;;1.85;1.23;;;;;;;14.54;73.73;100328.31;5055008;28;20551;-73
2021/05/26 07:58:45;;;;;;;1.15;1.00;;;;;;;14.56;72.96;100331.53;5054695;28;20543;-73
2021/05/26 08:01:11;;;;;;;2.17;1.50;;;;;;;14.50;73.07;100335.50;5052093;28;20139;-73
2021/05/26 08:03:36;;;;;;;2.60;1.00;;;;;;;14.58;72.86;100336.72;5053958;28;20079;-73
2021/05/26 08:06:01;;;;;;;1.25;1.10;;;;;;;14.45;73.01;100341.09;5050945;28;20048;-73
2021/05/26 08:08:28;;;;;;;1.17;1.08;;;;;;;14.37;73.02;100336.34;5053222;28;20392;-73
2021/05/26 08:10:53;;;;;;;2.35;0.95;;;;;;;14.33;72.74;100338.91;5052304;28;20021;-72
2021/05/26 08:13:18;;;;;;;1.75;1.08;;;;;;;14.30;72.87;100330.50;5052075;28;20075;-72
2021/05/26 08:15:44;;;;;;;1.13;1.00;;;;;;;14.14;72.20;100343.75;5059929;28;20403;-73
2021/05/26 08:18:11;;;;;;;4.82;1.08;;;;;;;14.05;72.27;100334.63;5052074;28;20036;-73
2021/05/26 08:20:36;;;;;;;2.85;0.90;;;;;;;13.87;72.03;100333.66;5052422;28;20101;-73
2021/05/26 08:23:02;;;;;;;1.25;0.90;;;;;;;13.81;71.95;100340.34;5036589;28;20025;-73
2021/05/26 08:25:27;;;;;;;1.35;1.02;;;;;;;13.82;71.70;100345.50;5050846;28;20036;-73
2021/05/26 08:27:53;;;;;;;1.90;0.90;;;;;;;13.82;71.45;100344.72;5051120;28;20395;-73
2021/05/26 08:30:19;;;;;;;1.75;1.00;;;;;;;13.86;71.34;100348.44;5053907;28;20076;-73
2021/05/26 08:32:44;;;;;;;3.13;0.95;;;;;;;13.91;71.05;100351.09;5048693;28;20064;-73
2021/05/26 08:35:10;;;;;;;2.35;1.02;;;;;;;14.03;71.04;100337.69;5068859;28;20526;-73
2021/05/26 08:37:35;;;;;;;1.17;0.90;;;;;;;14.15;70.79;100334.38;5049518;28;20495;-73
2021/05/26 08:40:01;;;;;;;2.17;1.20;;;;;;;14.24;70.63;100334.47;5052037;28;20471;-73
2021/05/26 08:42:26;;;;;;;1.35;1.10;;;;;;;14.28;70.54;100338.22;5052671;28;20033;-72
2021/05/26 08:44:51;;;;;;;1.25;1.10;;;;;;;14.31;70.35;100340.34;5052430;28;20067;-72
2021/05/26 08:47:18;;;;;;;1.00;0.90;;;;;;;14.30;70.20;100341.47;5052539;28;20467;-72
2021/05/26 08:49:49;;;;;;;2.00;1.20;;;;;;;14.28;69.71;100343.72;5051827;28;20510;-72
2021/05/26 08:52:15;;;;;;;0.90;0.70;;;;;;;14.20;69.41;100345.25;5051371;28;20106;-72
2021/05/26 08:54:42;;;;;;;0.88;0.88;;;;;;;14.18;69.26;100340.06;5052043;28;20021;-72
2021/05/26 08:57:08;;;;;;;1.90;0.73;;;;;;;14.20;68.75;100343.31;5052812;28;20374;-72
2021/05/26 08:59:33;;;;;;;2.40;0.82;;;;;;;14.29;68.61;100348.06;5053510;28;20025;-72
2021/05/26 09:01:59;;;;;;;1.20;0.90;;;;;;;14.44;68.43;100339.47;5053538;28;20032;-72
2021/05/26 09:04:43;;;;;;;1.58;0.70;;;;;;;14.60;68.11;100345.44;5052234;28;20161;-72
2021/05/26 09:07:14;;;;;;;1.50;0.75;;;;;;;14.86;67.47;100338.19;5049857;28;20407;-72
2021/05/26 09:09:58;;;;;;;0.70;0.70;;;;;;;15.13;67.03;100347.38;5052345;28;20039;-72
2021/05/26 09:12:34;;;;;;;1.02;0.93;;;;;;;15.22;66.42;100347.41;5053483;28;20021;-73
2021/05/26 09:15:04;;;;;;;1.85;1.10;;;;;;;15.24;66.09;100342.44;5047776;28;20037;-73
2021/05/26 09:17:30;;;;;;;1.00;0.90;;;;;;;15.32;66.17;100344.41;5045636;28;20112;-72
2021/05/26 09:20:15;;;;;;;1.38;1.00;;;;;;;15.40;65.78;100351.88;5051884;28;20029;-73
2021/05/26 09:23:07;;;;;;;1.00;0.90;;;;;;;15.31;65.42;100342.81;5047527;28;20032;-73
2021/05/26 09:25:47;;;;;;;1.95;0.98;;;;;;;15.19;64.81;100342.56;5048132;28;20052;-72
2021/05/26 09:28:18;;;;;;;1.38;0.98;;;;;;;14.98;65.16;100345.06;5052576;28;20495;-72
2021/05/26 09:31:10;;;;;;;1.45;0.80;;;;;;;15.02;65.24;100341.34;5051345;28;20458;-73
2021/05/26 09:33:40;;;;;;;2.67;0.95;;;;;;;15.16;65.14;100346.75;5052171;28;20423;-72
2021/05/26 09:36:35;;;;;;;1.65;1.30;;;;;;;15.39;64.72;100350.28;5053220;28;20035;-73
2021/05/26 09:39:04;;;;;;;1.63;0.80;;;;;;;15.65;64.55;100349.53;5056275;28;20071;-74
2021/05/26 09:41:34;;;;;;;1.17;0.80;;;;;;;15.83;64.24;100353.19;5052876;28;20027;-74
2021/05/26 09:44:01;;;;;;;1.05;0.82;;;;;;;15.95;64.08;100351.41;5067204;28;20111;-75
2021/05/26 09:46:30;;;;;;;2.15;1.00;;;;;;;16.18;63.96;100359.56;5052499;28;20522;-74
2021/05/26 09:48:59;;;;;;;1.00;0.88;;;;;;;16.28;63.47;100353.72;5048348;28;20039;-75
2021/05/26 09:51:28;;;;;;;1.52;0.95;;;;;;;16.31;63.07;100355.03;5052011;28;20079;-75
2021/05/26 09:54:16;;;;;;;1.60;1.30;;;;;;;16.35;63.08;100359.56;5051505;28;20020;-75
2021/05/26 09:56:43;;;;;;;2.17;0.70;;;;;;;16.35;62.77;100359.56;5048267;28;20025;-74
2021/05/26 09:59:08;;;;;;;1.38;1.00;;;;;;;16.40;62.70;100356.66;5050771;28;20395;-74
2021/05/26 10:01:34;;;;;;;3.33;1.02;;;;;;;16.50;62.20;100362.97;5050351;28;20029;-74
2021/05/26 10:04:00;;;;;;;1.52;1.00;;;;;;;16.60;61.71;100365.41;5045778;28;20033;-74
2021/05/26 10:06:27;;;;;;;3.60;0.90;;;;;;;16.75;61.29;100356.66;5051307;28;20555;-74
2021/05/26 10:08:54;;;;;;;1.33;1.00;;;;;;;16.78;60.86;100360.72;5050677;28;20040;-74
2021/05/26 10:11:20;;;;;;;1.55;1.10;;;;;;;16.82;60.76;100350.66;5035040;28;20026;-74
2021/05/26 10:13:46;;;;;;;1.38;1.10;;;;;;;16.81;60.45;100349.88;5050404;28;20047;-74
2021/05/26 10:16:15;;;;;;;1.02;0.98;;;;;;;16.85;60.46;100344.50;5055401;28;20021;-74
2021/05/26 10:18:40;;;;;;;3.55;1.05;;;;;;;16.95;60.18;100351.63;5050247;28;20035;-74
2021/05/26 10:21:05;;;;;;;1.95;0.90;;;;;;;16.92;60.00;100355.84;5052299;28;20029;-73
2021/05/26 10:23:31;;;;;;;1.17;1.08;;;;;;;16.85;60.23;100353.56;5051466;28;20383;-74
2021/05/26 10:25:56;;;;;;;2.30;0.90;;;;;;;16.81;59.97;100358.13;5049035;28;20036;-73
2021/05/26 10:28:31;;;;;;;1.02;0.93;;;;;;;16.75;60.22;100350.31;5050579;28;20021;-73
2021/05/26 10:30:57;;;;;;;1.27;0.80;;;;;;;16.65;60.18;100354.22;5043313;28;20029;-72
2021/05/26 10:33:41;;;;;;;1.38;1.02;;;;;;;16.58;60.43;100357.44;5048824;28;20120;-72
2021/05/26 10:36:11;;;;;;;2.47;0.95;;;;;;;16.63;60.48;100362.00;5057354;28;20061;-73
2021/05/26 10:38:54;;;;;;;1.50;1.00;;;;;;;16.63;60.09;100371.03;5059507;28;20105;-73
2021/05/26 10:41:20;;;;;;;1.45;0.98;;;;;;;16.67;60.30;100351.97;5049970;28;20155;-72
2021/05/26 10:43:56;;;;;;;1.85;1.10;;;;;;;16.75;59.73;100356.66;5042607;28;20484;-72
2021/05/26 10:46:35;;;;;;;1.10;0.80;;;;;;;16.65;59.47;100356.97;5050015;28;20025;-72
2021/05/26 10:49:05;;;;;;;1.20;0.88;;;;;;;16.56;59.52;100356.16;5051842;28;20044;-73
2021/05/26 10:51:52;;;;;;;1.40;1.08;;;;;;;16.53;59.48;100365.06;5045033;28;20037;-72
2021/05/26 10:54:39;;;;;;;1.40;0.95;;;;;;;16.56;59.50;100365.25;5045299;28;20029;-73
2021/05/26 10:57:07;;;;;;;1.63;0.95;;;;;;;16.54;59.48;100366.69;5051062;28;20025;-73
2021/05/26 10:59:33;;;;;;;0.90;0.82;;;;;;;16.51;59.30;100361.84;5050561;28;20025;-72
2021/05/26 11:02:09;;;;;;;1.30;1.02;;;;;;;16.53;58.87;100365.06;5041010;28;20051;-72
2021/05/26 11:04:38;;;;;;;2.38;1.10;;;;;;;16.54;58.52;100362.00;5045617;28;20047;-73
2021/05/26 11:07:19;;;;;;;1.83;1.27;;;;;;;16.50;58.75;100365.72;5053649;28;20043;-73
2021/05/26 11:10:05;;;;;;;2.10;0.70;;;;;;;16.46;58.67;100362.81;5054210;28;20020;-73
2021/05/26 11:12:55;;;;;;;1.05;0.95;;;;;;;16.29;58.23;100369.13;5053364;28;20021;-73
2021/05/26 11:15:43;;;;;;;3.10;2.70;;;;;;;15.66;59.38;100373.13;5057203;28;20024;-73
2021/05/26 11:18:41;;;;;;;5.68;2.05;;;;;;;15.01;61.26;100375.44;5054830;28;20498;-73
2021/05/26 11:21:14;;;;;;;2.90;1.70;;;;;;;14.39;62.70;100372.50;5051566;28;20032;-73
2021/05/26 11:23:40;;;;;;;5.10;1.55;;;;;;;13.97;63.51;100371.81;5053163;28;20479;-73
2021/05/26 11:26:06;;;;;;;1.63;1.25;;;;;;;13.79;64.38;100386.44;5055414;28;20025;-73
2021/05/26 11:28:33;;;;;;;2.72;1.38;;;;;;;13.70;64.78;100387.13;5052842;28;20021;-73
2021/05/26 11:31:03;;;;;;;1.80;1.20;;;;;;;13.62;65.26;100382.38;5053706;28;20440;-72